Time;durP1;ratioP1;P1;durP2;ratioP2;P2;SDS_P1;SDS_P2;PMS_P1;PMS_P2;Temp;Humidity;BMP_temperature;BMP_pressure;BME280_temperature;BME280_humidity;BME280_pressure;Samples;Min_cycle;Max_cycle;Signal;HPM_P1;HPM_P2
2022/03/13 00:00:52;;;;;;;42.60;19.63;;;;;;;-1.16;80.03;100716.44;5065189;28;20645;-69
2022/03/13 00:03:21;;;;;;;36.90;16.37;;;;;;;-1.21;79.93;100725.47;5068615;28;20206;-69
2022/03/13 00:05:51;;;;;;;137.33;44.90;;;;;;;-1.22;79.75;100711.19;5065684;28;20192;-69
2022/03/13 00:08:23;;;;;;;158.13;47.30;;;;;;;-1.25;79.94;100721.13;5069556;28;20200;-69
2022/03/13 00:10:56;;;;;;;152.80;50.27;;;;;;;-1.23;80.17;100709.44;5064795;28;20207;-69
2022/03/13 00:13:24;;;;;;;180.83;56.27;;;;;;;-1.22;80.19;100708.66;5066238;28;20307;-69
2022/03/13 00:15:52;;;;;;;172.57;53.03;;;;;;;-1.49;80.19;100661.50;5064034;28;20283;-69
2022/03/13 00:18:20;;;;;;;153.87;42.17;;;;;;;-1.27;80.08;100717.69;5068372;28;20212;-70
2022/03/13 00:20:48;;;;;;;106.43;35.33;;;;;;;-1.39;80.20;100686.19;5068672;28;20228;-69
2022/03/13 00:23:16;;;;;;;79.83;27.53;;;;;;;-1.37;79.80;100705.56;5065566;28;20219;-69
2022/03/13 00:25:43;;;;;;;69.10;25.37;;;;;;;-1.40;79.91;100699.56;5067486;28;20656;-69
2022/03/13 00:28:12;;;;;;;74.60;29.20;;;;;;;-1.39;80.22;100687.03;5063142;28;20751;-69
2022/03/13 00:30:39;;;;;;;97.97;36.37;;;;;;;-1.36;80.28;100688.81;5062369;28;20665;-69
2022/03/13 00:33:07;;;;;;;112.70;40.27;;;;;;;-1.54;80.26;100662.97;5059971;28;20583;-68
2022/03/13 00:35:34;;;;;;;98.13;36.40;;;;;;;-1.38;79.92;100697.94;5050985;28;20665;-69
2022/03/13 00:38:01;;;;;;;79.17;33.10;;;;;;;-1.43;79.56;100700.31;5065871;28;20202;-69
2022/03/13 00:40:30;;;;;;;74.53;31.20;;;;;;;-1.41;79.90;100701.22;5069458;28;20647;-69
2022/03/13 00:42:57;;;;;;;33.50;17.53;;;;;;;-1.39;79.85;100697.09;5069900;28;20278;-69
2022/03/13 00:45:24;;;;;;;18.83;12.60;;;;;;;-1.55;79.64;100679.69;5069097;28;20286;-69
2022/03/13 00:47:51;;;;;;;11.77;9.57;;;;;;;-1.41;79.51;100692.81;5069550;28;20230;-69
2022/03/13 00:50:18;;;;;;;19.87;11.53;;;;;;;-1.40;79.59;100700.44;5068826;28;20196;-69
2022/03/13 00:52:45;;;;;;;13.00;10.50;;;;;;;-1.42;79.67;100694.47;5063946;28;20763;-69
2022/03/13 00:55:12;;;;;;;18.77;11.53;;;;;;;-1.42;80.39;100702.00;5051212;28;20205;-69
2022/03/13 00:57:42;;;;;;;12.20;10.00;;;;;;;-1.56;80.62;100672.97;5051769;28;20224;-69
2022/03/13 01:00:12;;;;;;;11.07;9.53;;;;;;;-1.40;80.71;100695.41;5070335;28;20196;-70
2022/03/13 01:02:39;;;;;;;12.57;9.80;;;;;;;-1.41;80.71;100688.63;5073195;28;20232;-69
2022/03/13 01:05:09;;;;;;;12.40;10.27;;;;;;;-1.52;80.90;100674.81;5073066;28;20664;-69
2022/03/13 01:07:35;;;;;;;13.33;9.80;;;;;;;-1.52;81.39;100684.88;5066049;28;20695;-69
2022/03/13 01:10:02;;;;;;;11.57;9.17;;;;;;;-1.50;81.68;100693.31;5073115;28;20218;-69
2022/03/13 01:12:29;;;;;;;10.47;8.97;;;;;;;-1.56;82.33;100698.13;5072583;28;20303;-69
2022/03/13 01:14:58;;;;;;;9.73;8.07;;;;;;;-1.68;82.72;100675.84;5062672;28;20288;-69
2022/03/13 01:17:26;;;;;;;9.87;8.67;;;;;;;-1.67;83.18;100685.13;5052743;28;20283;-69
2022/03/13 01:19:53;;;;;;;10.03;8.47;;;;;;;-1.66;83.11;100686.00;5057470;28;20196;-69
2022/03/13 01:22:20;;;;;;;8.50;7.73;;;;;;;-1.71;82.91;100687.44;5071917;28;20200;-69
2022/03/13 01:24:47;;;;;;;9.10;8.20;;;;;;;-1.75;82.95;100681.47;5067130;28;20275;-69
2022/03/13 01:27:15;;;;;;;11.10;9.30;;;;;;;-1.72;82.71;100675.69;5071575;28;20200;-69
2022/03/13 01:29:45;;;;;;;9.17;8.27;;;;;;;-1.72;82.67;100676.56;5072410;28;20199;-69
2022/03/13 01:32:15;;;;;;;12.80;8.93;;;;;;;-1.71;82.49;100683.28;5070115;28;20224;-69
2022/03/13 01:34:44;;;;;;;16.73;8.70;;;;;;;-1.75;82.44;100678.09;5070514;28;20196;-69
2022/03/13 01:37:19;;;;;;;12.07;8.80;;;;;;;-1.81;82.70;100675.34;5054559;28;20295;-69
2022/03/13 01:39:46;;;;;;;12.70;10.17;;;;;;;-1.81;82.69;100675.34;5055686;28;20228;-69
2022/03/13 01:42:13;;;;;;;10.23;8.93;;;;;;;-1.85;82.94;100673.50;5053009;28;20197;-69
2022/03/13 01:44:40;;;;;;;9.63;8.70;;;;;;;-1.87;83.17;100675.06;5070165;28;20287;-69
2022/03/13 01:47:07;;;;;;;14.53;8.90;;;;;;;-1.85;82.75;100681.03;5071162;28;20313;-69
2022/03/13 01:49:36;;;;;;;11.23;9.53;;;;;;;-1.85;82.59;100673.50;5066647;28;20212;-69
2022/03/13 01:52:04;;;;;;;10.67;8.60;;;;;;;-1.81;82.34;100671.16;5071809;28;20220;-69
2022/03/13 01:54:31;;;;;;;11.23;8.87;;;;;;;-1.79;81.87;100668.72;5072542;28;20620;-69
2022/03/13 01:56:59;;;;;;;10.83;8.77;;;;;;;-1.88;81.51;100658.31;5071971;28;20223;-69
2022/03/13 01:59:28;;;;;;;10.77;8.77;;;;;;;-1.79;81.30;100673.72;5071419;28;20206;-69
2022/03/13 02:01:56;;;;;;;9.10;8.03;;;;;;;-1.84;81.10;100658.47;5072181;28;20196;-69
2022/03/13 02:04:26;;;;;;;8.97;8.07;;;;;;;-1.74;81.01;100672.25;5071598;28;20216;-69
2022/03/13 02:06:58;;;;;;;10.60;8.33;;;;;;;-1.80;80.76;100649.38;5065587;28;20207;-69
2022/03/13 02:09:25;;;;;;;8.80;8.00;;;;;;;-1.72;80.54;100663.13;5071652;28;20196;-69
2022/03/13 02:11:54;;;;;;;9.97;8.30;;;;;;;-1.71;80.57;100662.31;5071440;28;20215;-69
2022/03/13 02:14:23;;;;;;;16.03;8.83;;;;;;;-1.73;80.17;100658.88;5072078;28;20664;-69
2022/03/13 02:16:51;;;;;;;10.73;9.43;;;;;;;-1.77;79.81;100652.03;5071964;28;20196;-69
2022/03/13 02:19:18;;;;;;;11.40;9.13;;;;;;;-1.78;79.66;100662.91;5067825;28;20296;-69
2022/03/13 02:21:49;;;;;;;14.00;8.70;;;;;;;-1.85;80.03;100664.31;5060573;28;20201;-69
2022/03/13 02:24:20;;;;;;;8.33;7.53;;;;;;;-1.94;79.95;100648.88;5057826;28;20639;-69
2022/03/13 02:26:57;;;;;;;10.63;8.93;;;;;;;-1.86;80.34;100666.75;5063334;28;20201;-69
2022/03/13 02:29:24;;;;;;;9.63;8.10;;;;;;;-1.89;80.52;100664.13;5070922;28;20212;-69
2022/03/13 02:31:51;;;;;;;12.00;8.37;;;;;;;-1.90;80.57;100665.75;5071235;28;20192;-69
2022/03/13 02:34:19;;;;;;;8.80;7.97;;;;;;;-1.95;80.46;100658.84;5070963;28;20247;-69
2022/03/13 02:37:04;;;;;;;10.23;9.13;;;;;;;-2.06;80.43;100645.00;5071511;28;20295;-69
2022/03/13 02:39:38;;;;;;;8.57;7.63;;;;;;;-2.03;80.32;100642.59;5071475;28;20652;-69
2022/03/13 02:42:07;;;;;;;9.30;8.33;;;;;;;-1.99;80.56;100649.47;5068688;28;20751;-70
2022/03/13 02:44:35;;;;;;;11.43;9.00;;;;;;;-2.00;80.69;100662.84;5057049;28;20279;-69
2022/03/13 02:47:05;;;;;;;11.13;7.93;;;;;;;-2.03;80.82;100670.22;5054777;28;20284;-69
2022/03/13 02:49:33;;;;;;;8.03;7.43;;;;;;;-2.17;81.04;100655.50;5065924;28;20766;-69
2022/03/13 02:52:03;;;;;;;9.83;7.87;;;;;;;-2.30;81.23;100653.28;5070853;28;20421;-69
2022/03/13 02:54:31;;;;;;;13.87;8.30;;;;;;;-2.27;81.61;100665.97;5070775;28;20282;-69
2022/03/13 02:56:59;;;;;;;8.47;7.57;;;;;;;-2.33;81.69;100654.81;5070887;28;20723;-70
2022/03/13 02:59:27;;;;;;;8.10;7.30;;;;;;;-2.32;82.56;100662.38;5070518;28;20204;-69
2022/03/13 03:01:54;;;;;;;9.17;7.53;;;;;;;-2.34;82.89;100666.50;5070743;28;20196;-69
2022/03/13 03:04:26;;;;;;;9.00;8.10;;;;;;;-2.31;83.31;100654.06;5070383;28;20306;-69
2022/03/13 03:07:03;;;;;;;8.20;7.50;;;;;;;-2.27;82.95;100658.44;5065729;28;20197;-69
2022/03/13 03:09:31;;;;;;;10.23;6.80;;;;;;;-2.41;83.14;100641.91;5070623;28;20238;-69
2022/03/13 03:12:01;;;;;;;10.23;7.40;;;;;;;-2.28;83.18;100661.72;5070701;28;20291;-70
2022/03/13 03:14:30;;;;;;;7.93;6.90;;;;;;;-2.24;83.04;100658.53;5069307;28;20211;-69
2022/03/13 03:16:57;;;;;;;7.30;6.80;;;;;;;-2.25;82.88;100646.78;5064277;28;20209;-70
2022/03/13 03:19:23;;;;;;;7.27;6.70;;;;;;;-2.19;82.87;100651.19;5067095;28;20317;-69
2022/03/13 03:21:52;;;;;;;7.53;6.90;;;;;;;-2.25;82.82;100651.78;5065431;28;20679;-69
2022/03/13 03:24:21;;;;;;;6.73;6.10;;;;;;;-2.31;82.57;100651.56;5064491;28;20209;-69
2022/03/13 03:26:49;;;;;;;7.57;6.93;;;;;;;-2.30;82.54;100648.25;5070680;28;20579;-69
2022/03/13 03:29:17;;;;;;;6.23;5.60;;;;;;;-2.29;82.65;100644.91;5056543;28;20283;-69
2022/03/13 03:31:46;;;;;;;7.27;6.57;;;;;;;-2.29;82.72;100646.56;5050162;28;20666;-69
2022/03/13 03:34:15;;;;;;;6.47;6.00;;;;;;;-2.25;82.65;100644.25;5059316;28;20208;-69
2022/03/13 03:36:44;;;;;;;7.20;6.13;;;;;;;-2.27;82.65;100648.38;5070031;28;20192;-69
2022/03/13 03:39:12;;;;;;;7.13;5.97;;;;;;;-2.26;82.83;100642.53;5069772;28;20195;-69
2022/03/13 03:41:41;;;;;;;6.90;5.70;;;;;;;-2.32;83.04;100624.72;5065916;28;20192;-69
2022/03/13 03:44:08;;;;;;;7.47;6.77;;;;;;;-2.26;83.17;100635.00;5064318;28;20206;-69
2022/03/13 03:46:37;;;;;;;6.90;5.70;;;;;;;-2.27;83.71;100630.78;5069716;28;20195;-69
2022/03/13 03:49:04;;;;;;;7.00;6.40;;;;;;;-2.23;83.67;100625.06;5054604;28;20292;-69
2022/03/13 03:51:31;;;;;;;6.80;6.30;;;;;;;-2.22;83.77;100621.78;5051520;28;20288;-69
2022/03/13 03:53:58;;;;;;;5.93;5.53;;;;;;;-2.18;83.83;100623.63;5051069;28;20220;-68
2022/03/13 03:56:25;;;;;;;5.67;5.23;;;;;;;-2.22;84.08;100611.72;5069005;28;20277;-69
2022/03/13 03:58:52;;;;;;;11.67;7.07;;;;;;;-2.15;83.68;100623.75;5063441;28;20550;-69
2022/03/13 04:01:19;;;;;;;5.83;5.43;;;;;;;-2.10;83.53;100635.63;5067304;28;20287;-69
2022/03/13 04:03:48;;;;;;;7.00;6.33;;;;;;;-2.08;83.33;100631.53;5062990;28;20288;-68
2022/03/13 04:06:15;;;;;;;7.10;6.50;;;;;;;-2.08;83.36;100631.53;5068559;28;20198;-69
2022/03/13 04:08:42;;;;;;;7.47;6.87;;;;;;;-2.14;83.75;100634.66;5065771;28;20736;-69
2022/03/13 04:11:09;;;;;;;9.87;6.57;;;;;;;-2.20;84.32;100624.38;5061769;28;20680;-69
2022/03/13 04:13:38;;;;;;;6.90;6.27;;;;;;;-2.28;84.79;100621.53;5069920;28;20782;-69
2022/03/13 04:16:07;;;;;;;7.50;6.83;;;;;;;-2.20;84.94;100632.72;5065180;28;20295;-68
2022/03/13 04:18:35;;;;;;;6.97;6.27;;;;;;;-2.18;84.63;100633.66;5063122;28;20204;-69
2022/03/13 04:21:04;;;;;;;6.87;6.17;;;;;;;-2.15;84.32;100636.31;5069286;28;20321;-68
2022/03/13 04:23:32;;;;;;;8.10;6.57;;;;;;;-2.13;84.21;100642.22;5060646;28;20729;-69
2022/03/13 04:26:00;;;;;;;6.67;5.93;;;;;;;-2.12;83.82;100638.94;5065871;28;20204;-68
2022/03/13 04:28:27;;;;;;;7.63;6.93;;;;;;;-2.12;83.59;100638.94;5069315;28;20618;-69
2022/03/13 04:30:57;;;;;;;7.67;6.93;;;;;;;-2.14;83.43;100640.53;5069564;28;20200;-68
2022/03/13 04:33:25;;;;;;;7.07;6.43;;;;;;;-2.23;83.16;100630.09;5054276;28;20251;-69
2022/03/13 04:35:55;;;;;;;6.70;6.10;;;;;;;-2.13;83.15;100642.22;5055196;28;20200;-69
2022/03/13 04:38:26;;;;;;;6.60;5.83;;;;;;;-2.13;83.22;100636.34;5064958;28;20660;-68
2022/03/13 04:40:54;;;;;;;8.13;6.50;;;;;;;-2.13;82.80;100637.22;5073586;28;20192;-69
2022/03/13 04:43:23;;;;;;;6.83;6.33;;;;;;;-2.15;83.09;100636.31;5072874;28;20191;-69
2022/03/13 04:45:51;;;;;;;7.10;6.40;;;;;;;-2.14;83.46;100637.16;5073537;28;20680;-68
2022/03/13 04:48:19;;;;;;;6.93;6.33;;;;;;;-2.20;83.91;100627.72;5072979;28;20196;-68
2022/03/13 04:50:46;;;;;;;6.73;6.13;;;;;;;-2.13;84.13;100642.22;5073373;28;20220;-68
2022/03/13 04:53:13;;;;;;;7.10;6.37;;;;;;;-2.16;84.54;100632.06;5071709;28;20216;-68
2022/03/13 04:55:42;;;;;;;8.33;6.63;;;;;;;-2.08;84.62;100641.56;5054951;28;20197;-68
2022/03/13 04:58:10;;;;;;;6.60;5.93;;;;;;;-2.08;83.76;100641.56;5054682;28;20589;-68
2022/03/13 05:00:37;;;;;;;8.17;7.33;;;;;;;-2.09;83.40;100638.19;5066437;28;21172;-69
2022/03/13 05:03:05;;;;;;;15.70;8.77;;;;;;;-2.30;83.33;100598.03;5069771;28;20192;-69
2022/03/13 05:05:32;;;;;;;17.60;9.03;;;;;;;-2.13;82.80;100622.13;5065585;28;20200;-69
2022/03/13 05:07:59;;;;;;;8.90;8.03;;;;;;;-2.12;82.56;100616.31;5073184;28;20212;-69
2022/03/13 05:10:36;;;;;;;9.97;8.80;;;;;;;-2.01;81.89;100636.00;5068765;28;20307;-68
2022/03/13 05:13:05;;;;;;;12.40;8.67;;;;;;;-2.00;81.49;100633.53;5070156;28;20224;-69
2022/03/13 05:15:33;;;;;;;11.60;8.90;;;;;;;-1.97;82.16;100627.78;5063002;28;20200;-68
2022/03/13 05:18:00;;;;;;;12.63;9.07;;;;;;;-1.94;81.95;100632.94;5069126;28;20211;-69
2022/03/13 05:20:27;;;;;;;11.47;8.47;;;;;;;-1.92;82.00;100634.69;5072011;28;20204;-69
2022/03/13 05:22:54;;;;;;;13.40;8.40;;;;;;;-1.95;81.79;100626.19;5072926;28;20216;-69
2022/03/13 05:25:23;;;;;;;16.63;8.83;;;;;;;-1.81;81.64;100635.13;5072244;28;20579;-68
2022/03/13 05:27:50;;;;;;;10.30;9.00;;;;;;;-1.75;80.85;100641.25;5062588;28;20263;-68
2022/03/13 05:30:20;;;;;;;14.53;8.87;;;;;;;-1.77;79.69;100639.44;5070246;28;20204;-68
2022/03/13 05:32:47;;;;;;;13.30;7.73;;;;;;;-1.81;80.10;100630.09;5068769;28;20254;-68
2022/03/13 05:35:14;;;;;;;10.27;6.73;;;;;;;-1.70;79.33;100644.78;5068888;28;20201;-69
2022/03/13 05:37:41;;;;;;;8.53;7.53;;;;;;;-1.71;79.85;100634.66;5066232;28;20291;-69
2022/03/13 05:40:10;;;;;;;9.80;8.67;;;;;;;-1.60;79.98;100643.47;5061385;28;20660;-69
2022/03/13 05:42:37;;;;;;;11.50;8.90;;;;;;;-1.52;79.92;100639.63;5061606;28;20197;-69
2022/03/13 05:45:05;;;;;;;13.30;9.00;;;;;;;-1.47;79.57;100643.16;5066176;28;20298;-69
2022/03/13 05:47:33;;;;;;;8.00;7.27;;;;;;;-1.46;79.24;100644.00;5064567;28;20235;-69
2022/03/13 05:50:00;;;;;;;11.17;7.30;;;;;;;-1.44;79.30;100644.91;5071962;28;20676;-69
2022/03/13 05:52:27;;;;;;;7.77;6.60;;;;;;;-1.36;79.83;100641.91;5071985;28;20196;-69
2022/03/13 05:54:54;;;;;;;9.23;8.30;;;;;;;-1.23;80.41;100641.53;5072001;28;20755;-69
2022/03/13 05:57:21;;;;;;;9.53;8.63;;;;;;;-1.03;81.01;100641.41;5064787;28;20287;-69
2022/03/13 05:59:48;;;;;;;8.97;8.23;;;;;;;-0.97;81.01;100645.00;5060316;28;20211;-69
2022/03/13 06:02:15;;;;;;;8.10;6.63;;;;;;;-0.94;80.27;100647.63;5058474;28;20288;-69
2022/03/13 06:04:43;;;;;;;6.90;6.20;;;;;;;-0.83;79.35;100645.47;5058504;28;20568;-69
2022/03/13 06:07:10;;;;;;;7.07;6.37;;;;;;;-0.71;79.45;100656.00;5069199;28;20200;-69
2022/03/13 06:09:37;;;;;;;7.43;5.93;;;;;;;-0.51;79.36;100660.03;5065449;28;20204;-69
2022/03/13 06:12:05;;;;;;;6.37;5.87;;;;;;;-0.28;77.20;100659.16;5064631;28;20321;-69
2022/03/13 06:14:32;;;;;;;7.13;5.83;;;;;;;-0.03;74.35;100664.19;5069156;28;20230;-70
2022/03/13 06:16:59;;;;;;;7.20;6.63;;;;;;;0.11;72.71;100658.72;5071598;28;20246;-69
2022/03/13 06:19:26;;;;;;;6.63;5.83;;;;;;;0.26;70.92;100659.22;5065967;28;20623;-69
2022/03/13 06:21:54;;;;;;;5.60;5.20;;;;;;;0.43;70.58;100658.06;5071224;28;20196;-69
2022/03/13 06:24:21;;;;;;;6.23;5.67;;;;;;;0.53;69.44;100660.06;5067335;28;20197;-69
2022/03/13 06:26:50;;;;;;;6.80;6.03;;;;;;;0.73;69.63;100658.97;5066038;28;20208;-69
2022/03/13 06:29:17;;;;;;;7.30;5.97;;;;;;;0.79;67.16;100659.16;5070269;28;20200;-69
2022/03/13 06:31:45;;;;;;;8.00;5.47;;;;;;;0.90;68.20;100662.00;5068253;28;20294;-69
2022/03/13 06:34:12;;;;;;;6.73;5.90;;;;;;;1.02;68.76;100648.03;5068968;28;20662;-70
2022/03/13 06:36:39;;;;;;;5.20;4.90;;;;;;;1.27;67.13;100659.66;5069641;28;20295;-70
2022/03/13 06:39:07;;;;;;;5.33;4.93;;;;;;;1.43;66.62;100661.78;5061811;28;20206;-70
2022/03/13 06:41:34;;;;;;;5.57;5.23;;;;;;;1.62;65.48;100659.75;5064045;28;20302;-70
2022/03/13 06:44:01;;;;;;;5.73;5.27;;;;;;;1.76;64.50;100655.91;5066382;28;20284;-70
2022/03/13 06:46:28;;;;;;;4.47;4.17;;;;;;;1.83;60.10;100661.16;5054976;28;20727;-69
2022/03/13 06:48:55;;;;;;;3.80;3.60;;;;;;;1.93;59.08;100662.22;5063646;28;20204;-70
2022/03/13 06:51:22;;;;;;;4.60;4.20;;;;;;;2.02;59.05;100660.78;5059594;28;20205;-70
2022/03/13 06:53:49;;;;;;;4.50;4.30;;;;;;;2.05;59.71;100649.88;5066104;28;20228;-70
2022/03/13 06:56:18;;;;;;;5.23;4.93;;;;;;;2.27;59.61;100658.81;5063373;28;20262;-70
2022/03/13 06:58:47;;;;;;;5.00;4.60;;;;;;;2.39;60.96;100661.66;5064190;28;20659;-70
2022/03/13 07:01:15;;;;;;;7.17;5.03;;;;;;;2.58;59.03;100653.66;5063789;28;20231;-70
2022/03/13 07:03:42;;;;;;;7.63;7.03;;;;;;;2.57;59.95;100650.25;5058943;28;20194;-70
2022/03/13 07:06:09;;;;;;;6.30;5.80;;;;;;;2.65;60.08;100647.88;5064696;28;20207;-70
2022/03/13 07:08:36;;;;;;;4.80;4.50;;;;;;;2.74;59.66;100650.63;5061377;28;20228;-72
2022/03/13 07:11:04;;;;;;;5.40;4.90;;;;;;;2.71;58.37;100648.03;5065110;28;20231;-71
2022/03/13 07:13:33;;;;;;;4.57;4.27;;;;;;;2.71;58.27;100639.56;5063024;28;20269;-71
2022/03/13 07:16:03;;;;;;;5.33;4.93;;;;;;;2.87;57.53;100657.66;5058196;28;20664;-71
2022/03/13 07:18:30;;;;;;;5.57;5.07;;;;;;;2.80;56.95;100644.81;5063855;28;20210;-71
2022/03/13 07:20:57;;;;;;;5.53;5.13;;;;;;;2.97;57.92;100649.38;5056030;28;20215;-71
2022/03/13 07:23:24;;;;;;;6.03;5.50;;;;;;;3.11;57.62;100653.06;5066424;28;20201;-71
2022/03/13 07:25:52;;;;;;;6.50;6.07;;;;;;;3.23;56.85;100641.47;5063850;28;20618;-71
2022/03/13 07:28:19;;;;;;;7.03;6.33;;;;;;;3.41;56.76;100655.34;5063479;28;20553;-72
2022/03/13 07:30:47;;;;;;;9.60;6.60;;;;;;;3.53;57.30;100654.69;5063324;28;20623;-72
2022/03/13 07:33:14;;;;;;;5.50;5.10;;;;;;;3.70;56.97;100646.56;5059549;28;20204;-73
2022/03/13 07:35:41;;;;;;;8.00;6.30;;;;;;;3.74;55.37;100632.28;5066614;28;20212;-72
2022/03/13 07:38:08;;;;;;;6.50;5.53;;;;;;;4.05;55.76;100654.75;5061427;28;20295;-73
2022/03/13 07:40:35;;;;;;;6.47;5.87;;;;;;;4.21;55.38;100650.78;5063338;28;20771;-73
2022/03/13 07:43:02;;;;;;;5.13;4.83;;;;;;;4.31;53.97;100647.56;5061599;28;20211;-73
2022/03/13 07:45:29;;;;;;;5.43;5.03;;;;;;;4.45;53.19;100645.22;5059081;28;20200;-73
2022/03/13 07:47:59;;;;;;;4.80;4.50;;;;;;;4.58;52.61;100652.19;5055290;28;20200;-73
2022/03/13 07:50:27;;;;;;;5.00;4.60;;;;;;;4.78;51.31;100645.69;5061306;28;20208;-73
2022/03/13 07:52:54;;;;;;;4.13;3.93;;;;;;;4.88;53.89;100642.41;5060463;28;20313;-73
2022/03/13 07:55:22;;;;;;;3.97;3.77;;;;;;;4.90;50.36;100648.38;5058878;28;20961;-73
2022/03/13 07:57:49;;;;;;;4.73;4.43;;;;;;;4.89;49.88;100631.41;5062307;28;20727;-73
2022/03/13 08:00:18;;;;;;;4.43;4.13;;;;;;;5.23;51.14;100643.66;5058482;28;20776;-73
2022/03/13 08:02:46;;;;;;;33.93;20.43;;;;;;;5.18;49.97;100622.44;5059552;28;20207;-73
2022/03/13 08:05:16;;;;;;;7.63;6.90;;;;;;;5.29;51.89;100635.28;5063912;28;20203;-73
2022/03/13 08:07:43;;;;;;;4.90;4.60;;;;;;;5.39;51.13;100644.72;5061712;28;20204;-73
2022/03/13 08:10:10;;;;;;;4.53;4.13;;;;;;;5.39;50.07;100651.50;5057888;28;20207;-73
2022/03/13 08:12:39;;;;;;;5.37;5.17;;;;;;;5.31;48.90;100643.78;5062614;28;20311;-73
2022/03/13 08:15:07;;;;;;;4.90;4.60;;;;;;;5.37;50.66;100637.88;5056978;28;20227;-72
2022/03/13 08:17:34;;;;;;;4.20;3.93;;;;;;;5.40;50.86;100637.91;5064003;28;20208;-73
2022/03/13 08:20:04;;;;;;;8.57;4.00;;;;;;;5.50;49.54;100635.50;5060945;28;20672;-73
2022/03/13 08:22:32;;;;;;;4.57;4.23;;;;;;;5.60;48.13;100633.88;5066194;28;20196;-73
2022/03/13 08:25:00;;;;;;;4.83;3.47;;;;;;;5.79;48.40;100633.22;5058101;28;20740;-72
2022/03/13 08:27:27;;;;;;;4.30;4.00;;;;;;;5.96;50.04;100629.16;5063894;28;20283;-73
2022/03/13 08:29:53;;;;;;;3.63;3.43;;;;;;;6.06;48.12;100627.53;5064478;28;20231;-73
2022/03/13 08:32:20;;;;;;;5.23;4.83;;;;;;;6.10;48.04;100625.03;5062888;28;20291;-73
2022/03/13 08:34:48;;;;;;;6.35;5.70;;;;;;;6.12;48.73;100617.41;5054126;28;20448;-71
2022/03/13 08:37:15;;;;;;;7.53;6.82;;;;;;;6.26;46.94;100629.41;5048658;28;20439;-69
2022/03/13 08:39:44;;;;;;;4.90;4.50;;;;;;;6.40;48.21;100628.66;5053250;28;20821;-69
2022/03/13 08:42:11;;;;;;;4.20;3.90;;;;;;;6.46;46.62;100629.53;5069548;28;20301;-67
2022/03/13 08:44:38;;;;;;;5.10;4.80;;;;;;;6.52;45.68;100626.16;5059534;28;20676;-67
2022/03/13 08:47:05;;;;;;;4.23;3.93;;;;;;;6.71;48.08;100620.31;5064568;28;20250;-67
2022/03/13 08:49:32;;;;;;;3.67;3.47;;;;;;;6.93;45.21;100618.72;5060005;28;20270;-67
2022/03/13 08:51:59;;;;;;;3.23;3.07;;;;;;;7.08;43.34;100623.84;5069975;28;20208;-67
2022/03/13 08:54:26;;;;;;;3.63;3.43;;;;;;;7.17;43.89;100626.47;5061124;28;20216;-67
2022/03/13 08:56:54;;;;;;;3.97;3.73;;;;;;;7.34;43.20;100620.53;5040956;28;20225;-67
2022/03/13 08:59:21;;;;;;;4.70;4.40;;;;;;;7.47;44.26;100625.66;5033734;28;20205;-67
2022/03/13 09:01:48;;;;;;;3.77;3.57;;;;;;;7.65;45.54;100620.59;5037208;28;20196;-67
2022/03/13 09:04:21;;;;;;;3.47;3.27;;;;;;;7.67;44.55;100603.59;5034940;28;20295;-67
2022/03/13 09:06:54;;;;;;;4.80;4.40;;;;;;;7.76;44.28;100588.25;5046132;28;20264;-67
2022/03/13 09:09:25;;;;;;;3.63;3.40;;;;;;;7.95;45.08;100600.16;5044481;28;20205;-67
2022/03/13 09:11:54;;;;;;;4.00;3.53;;;;;;;7.92;42.78;100610.38;5032544;28;20220;-67
2022/03/13 09:14:21;;;;;;;3.47;3.27;;;;;;;7.89;41.27;100601.03;5034708;28;20303;-67
2022/03/13 09:16:48;;;;;;;6.67;6.00;;;;;;;7.91;43.85;100599.34;5050477;28;20320;-67
2022/03/13 09:19:15;;;;;;;7.20;6.70;;;;;;;8.03;45.47;100595.06;5033966;28;20284;-67
2022/03/13 09:21:42;;;;;;;12.63;11.23;;;;;;;8.03;44.06;100603.59;5047578;28;20200;-67
2022/03/13 09:24:10;;;;;;;5.50;5.10;;;;;;;8.15;44.93;100593.34;5037166;28;20237;-67
2022/03/13 09:26:39;;;;;;;8.53;6.90;;;;;;;8.30;45.28;100598.47;5033709;28;20205;-67
2022/03/13 09:29:08;;;;;;;5.80;5.40;;;;;;;8.46;45.17;100588.22;5033724;28;20292;-67
2022/03/13 09:31:36;;;;;;;5.20;4.70;;;;;;;8.59;45.90;100579.66;5033784;28;20737;-67
2022/03/13 09:34:03;;;;;;;6.50;5.73;;;;;;;8.71;42.75;100589.84;5033666;28;20201;-67
2022/03/13 09:36:36;;;;;;;4.83;4.53;;;;;;;8.80;41.16;100590.66;5033909;28;20197;-67
2022/03/13 09:39:04;;;;;;;10.63;9.53;;;;;;;8.78;40.37;100587.28;5033741;28;20661;-66
2022/03/13 09:41:31;;;;;;;4.47;4.17;;;;;;;8.94;42.72;100581.22;5033728;28;20670;-67
2022/03/13 09:43:57;;;;;;;10.30;8.33;;;;;;;8.83;41.08;100564.22;5033533;28;20288;-67
2022/03/13 09:46:26;;;;;;;8.00;6.00;;;;;;;8.86;41.83;100574.44;5033473;28;20333;-67
2022/03/13 09:48:54;;;;;;;85.80;31.70;;;;;;;8.87;41.21;100576.13;5033153;28;20201;-67
2022/03/13 09:51:21;;;;;;;15.87;8.47;;;;;;;8.95;41.24;100575.22;5035336;28;20301;-67
2022/03/13 09:53:49;;;;;;;8.53;7.13;;;;;;;8.89;42.75;100574.41;5035746;28;20217;-67
2022/03/13 09:56:16;;;;;;;3.97;3.67;;;;;;;8.89;40.11;100569.31;5035910;28;20697;-67
2022/03/13 09:58:45;;;;;;;23.87;18.23;;;;;;;8.90;40.21;100565.91;5037247;28;20291;-67
2022/03/13 10:01:13;;;;;;;23.33;11.50;;;;;;;8.98;39.27;100559.06;5048042;28;20213;-67
2022/03/13 10:03:41;;;;;;;58.00;19.70;;;;;;;9.12;39.07;100557.25;5042641;28;20205;-68
2022/03/13 10:06:09;;;;;;;4.53;4.23;;;;;;;9.36;39.23;100552.00;5049760;28;20197;-67
2022/03/13 10:08:36;;;;;;;18.70;9.47;;;;;;;9.49;41.87;100553.59;5042593;28;20198;-68
2022/03/13 10:11:03;;;;;;;16.33;8.57;;;;;;;9.49;39.69;100545.91;5033036;28;20280;-67
2022/03/13 10:13:36;;;;;;;5.57;5.07;;;;;;;9.75;39.18;100547.41;5032977;28;20248;-67
2022/03/13 10:16:05;;;;;;;4.50;4.10;;;;;;;9.84;36.76;100548.19;5032792;28;20221;-67
2022/03/13 10:18:32;;;;;;;5.30;3.80;;;;;;;9.93;37.63;100527.59;5034093;28;20208;-67
2022/03/13 10:21:08;;;;;;;5.20;3.73;;;;;;;9.91;36.65;100541.31;5044834;28;20201;-67
2022/03/13 10:23:35;;;;;;;4.00;3.70;;;;;;;10.00;41.06;100547.19;5052690;28;20200;-67
2022/03/13 10:26:04;;;;;;;3.33;3.13;;;;;;;9.97;35.02;100541.25;5042847;28;20296;-67
2022/03/13 10:28:33;;;;;;;4.60;3.90;;;;;;;10.02;38.46;100539.47;5033040;28;20685;-67
2022/03/13 10:31:11;;;;;;;6.40;3.77;;;;;;;10.05;39.07;100529.19;5031840;28;20205;-67
2022/03/13 10:33:55;;;;;;;3.77;3.50;;;;;;;10.23;38.00;100533.31;5049152;28;20209;-67
2022/03/13 10:36:31;;;;;;;4.37;4.07;;;;;;;10.09;37.71;100530.00;5052384;28;20286;-67
2022/03/13 10:38:59;;;;;;;2.93;2.83;;;;;;;9.88;37.51;100515.72;5052279;28;20200;-67
2022/03/13 10:41:42;;;;;;;3.70;3.40;;;;;;;9.92;35.45;100527.59;5052937;28;20683;-64
2022/03/13 10:44:13;;;;;;;3.87;3.67;;;;;;;9.89;35.57;100517.41;5052244;28;20627;-64
2022/03/13 10:46:42;;;;;;;9.50;4.00;;;;;;;9.61;34.75;100515.94;5050726;28;20461;-70
2022/03/13 10:49:10;;;;;;;4.18;3.85;;;;;;;9.82;39.44;100510.66;5041176;28;20850;-69
2022/03/13 10:51:41;;;;;;;4.20;3.90;;;;;;;10.06;36.24;100515.53;5042961;28;20585;-69
2022/03/13 10:54:08;;;;;;;5.60;3.60;;;;;;;10.16;35.92;100506.06;5034745;28;20232;-69
2022/03/13 10:56:35;;;;;;;3.10;2.90;;;;;;;10.20;35.79;100503.47;5048266;28;20716;-69
2022/03/13 10:59:17;;;;;;;4.33;4.03;;;;;;;10.09;33.83;100500.13;5061147;28;20696;-69
2022/03/13 11:01:44;;;;;;;4.53;4.17;;;;;;;10.13;35.36;100498.38;5056611;28;20240;-69
2022/03/13 11:04:15;;;;;;;5.40;5.07;;;;;;;10.18;33.08;100494.91;5060376;28;20196;-69
2022/03/13 11:06:43;;;;;;;4.40;4.10;;;;;;;9.91;32.34;100490.94;5063479;28;20203;-68
2022/03/13 11:09:11;;;;;;;5.53;5.10;;;;;;;9.96;38.21;100485.75;5064484;28;20644;-68
2022/03/13 11:11:41;;;;;;;3.60;3.40;;;;;;;10.28;40.40;100486.25;5058823;28;20208;-69
2022/03/13 11:14:08;;;;;;;3.53;3.33;;;;;;;10.39;34.79;100483.59;5069853;28;20569;-69
2022/03/13 11:16:35;;;;;;;3.60;3.40;;;;;;;10.53;31.24;100477.41;5065947;28;20243;-69
2022/03/13 11:19:04;;;;;;;3.80;3.60;;;;;;;10.68;31.16;100470.38;5058048;28;20235;-69
2022/03/13 11:21:32;;;;;;;3.57;3.37;;;;;;;10.79;31.23;100463.41;5065901;28;20196;-70
2022/03/13 11:24:01;;;;;;;4.17;3.87;;;;;;;10.90;32.53;100464.94;5059822;28;20292;-69
2022/03/13 11:26:30;;;;;;;4.10;3.80;;;;;;;10.99;32.53;100466.50;5058713;28;20197;-70
2022/03/13 11:28:58;;;;;;;4.37;3.97;;;;;;;10.89;28.95;100464.94;5059812;28;20299;-69